sensor_id;sensor_type;location;lat;lon;timestamp;pressure;altitude;pressure_sealevel;temperature;humidity
55679;BME280;41573;51.446;-2.018;2022-12-08T00:08:22;100723.44;;;-3.21;100.00
55679;BME280;41573;51.446;-2.018;2022-12-08T00:11:11;100718.25;;;-3.24;100.00
55679;BME280;41573;51.446;-2.018;2022-12-08T00:13:37;100726.06;;;-3.15;100.00
55679;BME280;41573;51.446;-2.018;2022-12-08T00:16:02;100720.84;;;-3.21;100.00
55679;BME280;41573;51.446;-2.018;2022-12-08T00:18:28;100716.50;;;-3.21;100.00
55679;BME280;41573;51.446;-2.018;2022-12-08T00:20:57;100706.97;;;-3.28;100.00
55679;BME280;41573;51.446;-2.018;2022-12-08T00:23:23;100713.91;;;-3.25;100.00
55679;BME280;41573;51.446;-2.018;2022-12-08T00:25:52;100704.38;;;-3.31;100.00
55679;BME280;41573;51.446;-2.018;2022-12-08T00:33:28;100707.84;;;-3.32;100.00
55679;BME280;41573;51.446;-2.018;2022-12-08T00:35:53;100688.75;;;-3.42;100.00
55679;BME280;41573;51.446;-2.018;2022-12-08T00:48:40;100684.38;;;-3.21;100.00
55679;BME280;41573;51.446;-2.018;2022-12-08T00:51:05;100671.34;;;-3.21;100.00
55679;BME280;41573;51.446;-2.018;2022-12-08T00:53:30;100678.28;;;-3.20;100.00
55679;BME280;41573;51.446;-2.018;2022-12-08T00:55:56;100666.13;;;-3.24;100.00
55679;BME280;41573;51.446;-2.018;2022-12-08T00:58:21;100666.16;;;-3.27;100.00
55679;BME280;41573;51.446;-2.018;2022-12-08T01:00:47;100656.63;;;-3.25;100.00
55679;BME280;41573;51.446;-2.018;2022-12-08T01:03:12;100667.88;;;-3.25;100.00
55679;BME280;41573;51.446;-2.018;2022-12-08T01:05:38;100648.81;;;-3.38;100.00
55679;BME280;41573;51.446;-2.018;2022-12-08T09:32:01;100338.34;;;-3.88;100.00
55679;BME280;41573;51.446;-2.018;2022-12-08T11:06:53;100248.53;;;-0.74;100.00
55679;BME280;41573;51.446;-2.018;2022-12-08T11:12:06;100231.00;;;-0.69;100.00
55679;BME280;41573;51.446;-2.018;2022-12-08T11:18:06;100220.16;;;-0.50;100.00
55679;BME280;41573;51.446;-2.018;2022-12-08T11:31:44;100210.22;;;0.06;100.00
55679;BME280;41573;51.446;-2.018;2022-12-08T11:34:19;100203.91;;;0.15;100.00
55679;BME280;41573;51.446;-2.018;2022-12-08T11:36:47;100202.72;;;0.30;100.00
55679;BME280;41573;51.446;-2.018;2022-12-08T11:39:14;100188.56;;;0.37;100.00
55679;BME280;41573;51.446;-2.018;2022-12-08T11:41:41;100190.03;;;0.47;100.00
55679;BME280;41573;51.446;-2.018;2022-12-08T11:46:50;100179.34;;;0.55;100.00
55679;BME280;41573;51.446;-2.018;2022-12-08T11:49:17;100186.06;;;0.67;100.00
55679;BME280;41573;51.446;-2.018;2022-12-08T11:51:53;100166.69;;;0.73;100.00
55679;BME280;41573;51.446;-2.018;2022-12-08T11:54:25;100164.81;;;0.78;100.00
55679;BME280;41573;51.446;-2.018;2022-12-08T11:56:56;100157.56;;;0.88;100.00
55679;BME280;41573;51.446;-2.018;2022-12-08T11:59:43;100149.41;;;0.98;100.00
55679;BME280;41573;51.446;-2.018;2022-12-08T12:02:20;100146.50;;;1.08;100.00
55679;BME280;41573;51.446;-2.018;2022-12-08T12:04:51;100137.69;;;1.10;100.00
55679;BME280;41573;51.446;-2.018;2022-12-08T12:10:31;100119.78;;;1.25;100.00
55679;BME280;41573;51.446;-2.018;2022-12-08T12:18:41;100103.25;;;1.52;100.00
55679;BME280;41573;51.446;-2.018;2022-12-08T12:21:34;100102.16;;;1.60;100.00
55679;BME280;41573;51.446;-2.018;2022-12-08T12:24:06;100089.69;;;1.66;100.00
55679;BME280;41573;51.446;-2.018;2022-12-08T12:26:36;100091.88;;;1.80;100.00
55679;BME280;41573;51.446;-2.018;2022-12-08T12:31:30;100081.06;;;1.89;100.00
55679;BME280;41573;51.446;-2.018;2022-12-08T12:34:34;100086.94;;;1.98;100.00
55679;BME280;41573;51.446;-2.018;2022-12-08T12:37:12;100083.31;;;2.02;100.00
55679;BME280;41573;51.446;-2.018;2022-12-08T12:40:02;100078.53;;;2.13;100.00
55679;BME280;41573;51.446;-2.018;2022-12-08T12:45:10;100069.69;;;2.16;100.00
55679;BME280;41573;51.446;-2.018;2022-12-08T12:47:53;100071.38;;;2.18;100.00
55679;BME280;41573;51.446;-2.018;2022-12-08T12:50:44;100067.63;;;2.26;100.00
55679;BME280;41573;51.446;-2.018;2022-12-08T13:03:34;100068.56;;;2.23;100.00
55679;BME280;41573;51.446;-2.018;2022-12-08T13:06:00;100058.00;;;2.24;100.00
55679;BME280;41573;51.446;-2.018;2022-12-08T13:08:26;100058.50;;;2.36;100.00
55679;BME280;41573;51.446;-2.018;2022-12-08T13:11:01;100059.25;;;2.39;100.00
55679;BME280;41573;51.446;-2.018;2022-12-08T13:13:28;100054.84;;;2.40;100.00
55679;BME280;41573;51.446;-2.018;2022-12-08T13:18:36;100049.22;;;2.51;100.00
55679;BME280;41573;51.446;-2.018;2022-12-08T13:21:10;100047.19;;;2.59;100.00
55679;BME280;41573;51.446;-2.018;2022-12-08T13:26:24;100046.13;;;2.65;100.00
55679;BME280;41573;51.446;-2.018;2022-12-08T13:31:57;100054.59;;;2.73;100.00
55679;BME280;41573;51.446;-2.018;2022-12-08T13:34:32;100043.13;;;2.74;100.00
55679;BME280;41573;51.446;-2.018;2022-12-08T13:39:50;100033.56;;;2.73;100.00
55679;BME280;41573;51.446;-2.018;2022-12-08T13:42:28;100032.63;;;2.74;100.00
55679;BME280;41573;51.446;-2.018;2022-12-08T13:44:57;100024.63;;;2.77;100.00
55679;BME280;41573;51.446;-2.018;2022-12-08T13:47:33;100012.47;;;2.74;100.00
55679;BME280;41573;51.446;-2.018;2022-12-08T13:52:53;100025.44;;;2.79;100.00
55679;BME280;41573;51.446;-2.018;2022-12-08T13:55:40;100018.44;;;2.78;100.00
55679;BME280;41573;51.446;-2.018;2022-12-08T13:58:15;100011.38;;;2.80;100.00
55679;BME280;41573;51.446;-2.018;2022-12-08T14:00:41;100014.91;;;2.79;100.00
55679;BME280;41573;51.446;-2.018;2022-12-08T14:03:10;100010.38;;;2.83;100.00
55679;BME280;41573;51.446;-2.018;2022-12-08T14:05:40;100006.06;;;2.82;100.00
55679;BME280;41573;51.446;-2.018;2022-12-08T14:08:17;100000.03;;;2.78;100.00
55679;BME280;41573;51.446;-2.018;2022-12-08T14:10:47;99999.25;;;2.76;100.00
55679;BME280;41573;51.446;-2.018;2022-12-08T14:13:17;100004.50;;;2.76;100.00
55679;BME280;41573;51.446;-2.018;2022-12-08T14:15:42;100000.41;;;2.69;100.00
55679;BME280;41573;51.446;-2.018;2022-12-08T14:18:26;100000.16;;;2.75;100.00
55679;BME280;41573;51.446;-2.018;2022-12-08T14:21:09;99998.56;;;2.71;100.00
55679;BME280;41573;51.446;-2.018;2022-12-08T14:23:35;100004.63;;;2.73;100.00
55679;BME280;41573;51.446;-2.018;2022-12-08T14:26:03;100009.41;;;2.85;100.00
55679;BME280;41573;51.446;-2.018;2022-12-08T14:28:31;100010.28;;;2.86;100.00
55679;BME280;41573;51.446;-2.018;2022-12-08T14:30:57;100003.19;;;2.88;100.00
55679;BME280;41573;51.446;-2.018;2022-12-08T14:33:26;100008.56;;;2.85;100.00
55679;BME280;41573;51.446;-2.018;2022-12-08T14:35:54;100005.19;;;2.81;100.00
55679;BME280;41573;51.446;-2.018;2022-12-08T14:38:21;100004.63;;;2.73;100.00
55679;BME280;41573;51.446;-2.018;2022-12-08T14:41:00;100006.44;;;2.71;100.00
55679;BME280;41573;51.446;-2.018;2022-12-08T14:43:27;100012.06;;;2.62;100.00
55679;BME280;41573;51.446;-2.018;2022-12-08T14:46:17;100017.50;;;2.55;100.00
55679;BME280;41573;51.446;-2.018;2022-12-08T14:48:43;100009.88;;;2.49;100.00
55679;BME280;41573;51.446;-2.018;2022-12-08T14:53:39;100026.13;;;2.35;100.00
55679;BME280;41573;51.446;-2.018;2022-12-08T14:56:07;100020.22;;;2.29;100.00
55679;BME280;41573;51.446;-2.018;2022-12-08T14:58:38;100016.13;;;2.20;100.00
55679;BME280;41573;51.446;-2.018;2022-12-08T15:01:05;100018.81;;;2.18;100.00
55679;BME280;41573;51.446;-2.018;2022-12-08T15:03:32;100015.72;;;2.07;100.00
55679;BME280;41573;51.446;-2.018;2022-12-08T15:06:02;100023.69;;;2.04;100.00
55679;BME280;41573;51.446;-2.018;2022-12-08T15:08:29;100022.97;;;1.99;100.00
55679;BME280;41573;51.446;-2.018;2022-12-08T15:13:49;100002.31;;;1.89;100.00
55679;BME280;41573;51.446;-2.018;2022-12-08T15:19:21;100010.47;;;1.80;100.00
55679;BME280;41573;51.446;-2.018;2022-12-08T15:21:53;100009.78;;;1.75;100.00
55679;BME280;41573;51.446;-2.018;2022-12-08T15:24:23;100010.78;;;1.71;100.00
55679;BME280;41573;51.446;-2.018;2022-12-08T15:26:50;100017.03;;;1.67;100.00
55679;BME280;41573;51.446;-2.018;2022-12-08T15:29:27;100008.56;;;1.59;100.00
55679;BME280;41573;51.446;-2.018;2022-12-08T15:31:57;100008.59;;;1.57;100.00
55679;BME280;41573;51.446;-2.018;2022-12-08T15:34:23;100003.63;;;1.48;100.00
55679;BME280;41573;51.446;-2.018;2022-12-08T15:36:49;100005.53;;;1.44;100.00
55679;BME280;41573;51.446;-2.018;2022-12-08T15:39:29;100009.16;;;1.40;100.00
55679;BME280;41573;51.446;-2.018;2022-12-08T15:41:56;100021.47;;;1.38;100.00
55679;BME280;41573;51.446;-2.018;2022-12-08T15:44:21;100016.38;;;1.32;100.00
55679;BME280;41573;51.446;-2.018;2022-12-08T15:46:47;100020.06;;;1.26;100.00
55679;BME280;41573;51.446;-2.018;2022-12-08T15:49:22;100014.16;;;1.19;100.00
55679;BME280;41573;51.446;-2.018;2022-12-08T15:51:48;100031.69;;;1.17;100.00
55679;BME280;41573;51.446;-2.018;2022-12-08T15:54:14;100031.06;;;1.09;100.00
55679;BME280;41573;51.446;-2.018;2022-12-08T15:56:47;100035.59;;;1.04;100.00
55679;BME280;41573;51.446;-2.018;2022-12-08T15:59:18;100041.75;;;1.03;100.00
55679;BME280;41573;51.446;-2.018;2022-12-08T16:01:44;100052.44;;;0.97;100.00
55679;BME280;41573;51.446;-2.018;2022-12-08T16:04:15;100040.41;;;0.90;100.00
55679;BME280;41573;51.446;-2.018;2022-12-08T16:06:43;100054.50;;;0.85;100.00
55679;BME280;41573;51.446;-2.018;2022-12-08T16:09:23;100049.41;;;0.79;100.00
55679;BME280;41573;51.446;-2.018;2022-12-08T16:11:50;100050.53;;;0.71;100.00
55679;BME280;41573;51.446;-2.018;2022-12-08T16:14:35;100055.09;;;0.64;100.00
55679;BME280;41573;51.446;-2.018;2022-12-08T16:17:01;100055.19;;;0.61;100.00
55679;BME280;41573;51.446;-2.018;2022-12-08T16:19:27;100052.91;;;0.48;100.00
55679;BME280;41573;51.446;-2.018;2022-12-08T16:21:53;100061.72;;;0.46;100.00
55679;BME280;41573;51.446;-2.018;2022-12-08T16:24:19;100054.03;;;0.38;100.00
55679;BME280;41573;51.446;-2.018;2022-12-08T16:26:45;100052.56;;;0.28;100.00
55679;BME280;41573;51.446;-2.018;2022-12-08T16:29:20;100063.19;;;0.23;100.00
55679;BME280;41573;51.446;-2.018;2022-12-08T16:57:14;100073.25;;;-0.32;100.00
55679;BME280;41573;51.446;-2.018;2022-12-08T20:46:22;100103.34;;;-2.42;100.00
55679;BME280;41573;51.446;-2.018;2022-12-08T20:48:48;100100.84;;;-2.48;100.00
55679;BME280;41573;51.446;-2.018;2022-12-08T20:51:16;100092.16;;;-2.50;100.00
55679;BME280;41573;51.446;-2.018;2022-12-08T20:57:04;100097.47;;;-2.56;100.00
55679;BME280;41573;51.446;-2.018;2022-12-08T21:07:20;100098.00;;;-2.95;100.00
55679;BME280;41573;51.446;-2.018;2022-12-08T21:10:21;100088.56;;;-3.04;100.00
55679;BME280;41573;51.446;-2.018;2022-12-08T21:12:52;100093.81;;;-3.10;100.00
55679;BME280;41573;51.446;-2.018;2022-12-08T21:15:18;100091.28;;;-3.16;100.00
55679;BME280;41573;51.446;-2.018;2022-12-08T21:17:43;100088.75;;;-3.21;100.00
55679;BME280;41573;51.446;-2.018;2022-12-08T21:20:12;100089.63;;;-3.22;100.00
